createdAt,value
2022-08-10T00:00:13.622Z,99.90
2022-08-10T00:01:40.631Z,99.90
2022-08-10T00:03:03.040Z,99.90
2022-08-10T00:04:25.705Z,99.90
2022-08-10T00:05:53.220Z,99.90
2022-08-10T00:07:23.162Z,99.90
2022-08-10T00:08:52.350Z,99.90
2022-08-10T00:10:21.101Z,99.90
2022-08-10T00:11:43.479Z,99.90
2022-08-10T00:13:09.033Z,99.90
2022-08-10T00:14:38.428Z,99.90
2022-08-10T00:16:00.812Z,99.90
2022-08-10T00:17:23.161Z,99.90
2022-08-10T00:18:45.418Z,99.90
2022-08-10T00:20:11.917Z,99.90
2022-08-10T00:21:34.586Z,99.90
2022-08-10T00:22:57.921Z,99.90
2022-08-10T00:24:20.531Z,99.90
2022-08-10T00:25:42.853Z,99.90
2022-08-10T00:28:01.123Z,99.90
2022-08-10T00:28:47.817Z,99.90
2022-08-10T00:30:11.001Z,99.90
2022-08-10T00:31:55.941Z,99.90
2022-08-10T00:33:18.546Z,99.90
2022-08-10T00:34:41.221Z,99.90
2022-08-10T00:36:03.900Z,99.90
2022-08-10T00:37:28.567Z,99.90
2022-08-10T00:38:50.970Z,99.90
2022-08-10T00:40:16.312Z,99.90
2022-08-10T00:41:40.692Z,99.90
2022-08-10T00:43:02.854Z,99.90
2022-08-10T00:44:25.126Z,99.90
2022-08-10T00:45:58.859Z,99.90
2022-08-10T00:47:37.429Z,99.90
2022-08-10T00:49:00.265Z,99.90
2022-08-10T00:50:23.068Z,99.90
2022-08-10T00:51:48.708Z,99.90
2022-08-10T00:53:11.258Z,99.90
2022-08-10T00:54:35.842Z,99.90
2022-08-10T00:57:10.068Z,99.90
2022-08-10T00:57:40.766Z,99.90
2022-08-10T00:59:03.007Z,99.90
2022-08-10T01:00:25.445Z,99.90
2022-08-10T01:02:09.178Z,99.90
2022-08-10T01:04:36.312Z,99.90
2022-08-10T01:05:14.406Z,99.90
2022-08-10T01:06:53.870Z,99.90
2022-08-10T01:08:28.594Z,99.90
2022-08-10T01:10:09.132Z,99.90
2022-08-10T01:12:47.340Z,99.90
2022-08-10T01:13:45.475Z,99.90
2022-08-10T01:15:10.517Z,99.90
2022-08-10T01:16:52.558Z,99.90
2022-08-10T01:18:35.961Z,99.90
2022-08-10T01:20:30.151Z,99.90
2022-08-10T01:22:23.950Z,99.90
2022-08-10T01:24:05.553Z,99.90
2022-08-10T01:26:10.412Z,99.90
2022-08-10T01:28:17.141Z,99.90
2022-08-10T01:29:59.794Z,99.90
2022-08-10T01:31:28.122Z,99.90
2022-08-10T01:33:10.087Z,99.90
2022-08-10T01:34:50.762Z,99.90
2022-08-10T01:36:20.256Z,99.90
2022-08-10T01:38:12.633Z,99.90
2022-08-10T01:39:42.043Z,99.90
2022-08-10T01:41:11.136Z,99.90
2022-08-10T01:42:38.813Z,99.90
2022-08-10T01:44:11.100Z,99.90
2022-08-10T01:45:44.587Z,99.90
2022-08-10T01:47:34.294Z,99.90
2022-08-10T01:49:00.638Z,99.90
2022-08-10T01:50:36.036Z,99.90
2022-08-10T01:52:21.173Z,99.90
2022-08-10T01:53:52.140Z,99.90
2022-08-10T01:55:19.794Z,99.90
2022-08-10T01:56:48.372Z,99.90
2022-08-10T01:58:14.555Z,99.90
2022-08-10T01:59:39.378Z,99.90
2022-08-10T02:01:03.033Z,99.90
2022-08-10T02:02:30.682Z,99.90
2022-08-10T02:04:01.280Z,99.90
2022-08-10T02:05:31.480Z,99.90
2022-08-10T02:06:55.220Z,99.90
2022-08-10T02:08:19.247Z,99.90
2022-08-10T02:09:47.213Z,99.90
2022-08-10T02:11:10.985Z,99.90
2022-08-10T02:12:35.933Z,99.90
2022-08-10T02:13:59.503Z,99.90
2022-08-10T02:15:24.273Z,99.90
2022-08-10T02:16:51.628Z,99.90
2022-08-10T02:18:15.015Z,99.90
2022-08-10T02:19:41.749Z,99.90
2022-08-10T02:21:06.927Z,99.90
2022-08-10T02:22:46.010Z,99.90
2022-08-10T02:24:13.685Z,99.90
2022-08-10T02:25:42.714Z,99.90
2022-08-10T02:27:07.507Z,99.90
2022-08-10T02:28:34.961Z,99.90
2022-08-10T02:29:59.068Z,99.90
2022-08-10T02:31:29.503Z,99.90
2022-08-10T02:32:57.028Z,99.90
2022-08-10T02:34:20.329Z,99.90
2022-08-10T02:35:55.273Z,99.90
2022-08-10T02:37:22.303Z,99.90
2022-08-10T02:38:59.698Z,99.90
2022-08-10T02:42:18.118Z,99.90
2022-08-10T02:45:22.444Z,99.90
2022-08-10T02:45:23.629Z,99.90
2022-08-10T02:46:32.309Z,99.90
2022-08-10T02:47:58.714Z,99.90
2022-08-10T02:49:26.601Z,99.90
2022-08-10T02:50:57.173Z,99.90
2022-08-10T02:52:32.079Z,99.90
2022-08-10T02:54:03.711Z,99.90
2022-08-10T02:55:39.872Z,99.90
2022-08-10T02:57:18.693Z,99.90
2022-08-10T02:58:47.211Z,99.90
2022-08-10T03:00:10.041Z,99.90
2022-08-10T03:01:36.826Z,99.90
2022-08-10T03:03:01.661Z,99.90
2022-08-10T03:04:55.673Z,99.90
2022-08-10T03:06:23.601Z,99.90
2022-08-10T03:07:58.492Z,99.90
2022-08-10T03:09:22.492Z,99.90
2022-08-10T03:10:46.674Z,99.90
2022-08-10T03:12:36.755Z,99.90
2022-08-10T03:13:59.857Z,99.90
2022-08-10T03:15:24.427Z,99.90
2022-08-10T03:16:50.664Z,99.90
2022-08-10T03:18:15.264Z,99.90
2022-08-10T03:20:35.738Z,99.90
2022-08-10T03:21:29.259Z,99.90
2022-08-10T03:22:52.879Z,99.90
2022-08-10T03:24:33.321Z,99.90
2022-08-10T03:25:59.183Z,99.90
2022-08-10T03:27:26.813Z,99.90
2022-08-10T03:28:49.251Z,99.90
2022-08-10T03:30:29.972Z,99.90
2022-08-10T03:31:55.725Z,99.90
2022-08-10T03:33:19.437Z,99.90
2022-08-10T03:34:42.692Z,99.90
2022-08-10T03:36:43.212Z,99.90
2022-08-10T03:37:59.922Z,99.90
2022-08-10T03:39:22.566Z,99.90
2022-08-10T03:40:56.957Z,99.90
2022-08-10T03:42:22.691Z,99.90
2022-08-10T03:43:50.100Z,99.90
2022-08-10T03:45:13.804Z,99.90
2022-08-10T03:46:50.116Z,99.90
2022-08-10T03:48:22.891Z,99.90
2022-08-10T03:49:48.437Z,99.90
2022-08-10T03:51:11.900Z,99.90
2022-08-10T03:52:37.530Z,99.90
2022-08-10T03:54:03.612Z,99.90
2022-08-10T03:56:30.499Z,99.90
2022-08-10T03:57:14.194Z,99.90
2022-08-10T03:58:39.976Z,99.90
2022-08-10T04:00:05.378Z,99.90
2022-08-10T04:02:46.665Z,99.90
2022-08-10T04:03:11.867Z,99.90
2022-08-10T04:04:34.483Z,99.90
2022-08-10T04:06:00.638Z,99.90
2022-08-10T04:07:24.718Z,99.90
2022-08-10T04:08:50.128Z,99.90
2022-08-10T04:10:14.269Z,99.90
2022-08-10T04:11:37.103Z,99.90
2022-08-10T04:13:02.926Z,99.90
2022-08-10T04:14:38.761Z,99.90
2022-08-10T04:16:08.135Z,99.90
2022-08-10T04:18:05.066Z,99.90
2022-08-10T04:19:15.067Z,99.90
2022-08-10T04:20:50.774Z,99.90
2022-08-10T04:22:20.694Z,99.90
2022-08-10T04:23:51.134Z,99.90
2022-08-10T04:25:15.986Z,99.90
2022-08-10T04:26:39.085Z,99.90
2022-08-10T04:28:01.701Z,99.90
2022-08-10T04:29:25.638Z,99.90
2022-08-10T04:30:50.193Z,99.90
2022-08-10T04:32:17.253Z,99.50
2022-08-10T04:33:44.762Z,97.90
2022-08-10T04:35:10.627Z,96.70
2022-08-10T04:36:34.225Z,95.50
2022-08-10T04:37:58.473Z,94.60
2022-08-10T04:39:21.832Z,94.00
2022-08-10T04:40:46.979Z,93.40
2022-08-10T04:42:09.552Z,93.10
2022-08-10T04:43:32.015Z,93.00
2022-08-10T04:44:54.428Z,93.20
2022-08-10T04:46:42.862Z,93.40
2022-08-10T04:48:03.194Z,93.00
2022-08-10T04:49:53.983Z,92.40
2022-08-10T04:51:10.761Z,91.80
2022-08-10T04:52:33.795Z,91.20
2022-08-10T04:54:03.889Z,90.80
2022-08-10T04:55:29.008Z,90.50
2022-08-10T04:56:51.314Z,90.10
2022-08-10T04:58:13.465Z,89.50
2022-08-10T04:59:35.615Z,89.10
2022-08-10T05:00:57.889Z,89.20
2022-08-10T05:02:31.300Z,88.60
2022-08-10T05:04:34.517Z,87.30
2022-08-10T05:05:36.330Z,86.60
2022-08-10T05:06:58.392Z,85.60
2022-08-10T05:08:20.668Z,85.20
2022-08-10T05:10:02.393Z,85.60
2022-08-10T05:11:25.366Z,86.10
2022-08-10T05:12:47.432Z,87.40
2022-08-10T05:14:09.496Z,87.60
2022-08-10T05:15:31.686Z,87.50
2022-08-10T05:16:53.757Z,87.90
2022-08-10T05:18:15.940Z,88.90
2022-08-10T05:20:04.283Z,89.60
2022-08-10T05:22:02.997Z,90.10
2022-08-10T05:23:02.872Z,90.40
2022-08-10T05:24:25.028Z,90.40
2022-08-10T05:25:47.126Z,90.40
2022-08-10T05:27:10.603Z,90.50
2022-08-10T05:28:32.841Z,90.60
2022-08-10T05:30:02.163Z,90.60
2022-08-10T05:31:25.549Z,90.40
2022-08-10T05:32:59.222Z,90.30
2022-08-10T05:34:26.665Z,90.20
2022-08-10T05:35:55.203Z,89.40
2022-08-10T05:38:08.898Z,89.10
2022-08-10T05:39:02.755Z,88.50
2022-08-10T05:40:27.117Z,88.30
2022-08-10T05:41:53.096Z,88.50
2022-08-10T05:43:20.332Z,88.80
2022-08-10T05:44:42.582Z,89.10
2022-08-10T05:46:18.652Z,89.40
2022-08-10T05:48:55.065Z,90.00
2022-08-10T05:49:25.421Z,90.10
2022-08-10T05:50:47.841Z,90.40
2022-08-10T05:52:09.951Z,90.40
2022-08-10T05:54:01.154Z,90.60
2022-08-10T05:55:17.378Z,90.70
2022-08-10T05:56:57.071Z,91.00
2022-08-10T05:58:20.136Z,91.60
2022-08-10T06:00:33.350Z,91.60
2022-08-10T06:01:31.779Z,91.90
2022-08-10T06:03:04.555Z,92.10
2022-08-10T06:04:38.619Z,92.30
2022-08-10T06:06:02.256Z,92.30
2022-08-10T06:07:29.407Z,92.20
2022-08-10T06:08:52.663Z,92.50
2022-08-10T06:10:19.639Z,92.30
2022-08-10T06:12:28.531Z,92.50
2022-08-10T06:14:13.783Z,92.80
2022-08-10T06:15:52.099Z,93.00
2022-08-10T06:17:15.511Z,93.30
2022-08-10T06:18:38.213Z,93.60
2022-08-10T06:20:01.464Z,94.00
2022-08-10T06:21:24.041Z,94.20
2022-08-10T06:22:46.211Z,94.50
2022-08-10T06:24:11.115Z,95.00
2022-08-10T06:27:16.737Z,96.10
2022-08-10T06:28:42.575Z,96.80
2022-08-10T06:30:20.192Z,97.50
2022-08-10T06:31:51.080Z,98.00
2022-08-10T06:33:13.883Z,99.10
2022-08-10T06:34:39.944Z,99.40
2022-08-10T06:36:04.147Z,99.90
2022-08-10T06:37:28.089Z,99.90
2022-08-10T06:38:51.854Z,99.90
2022-08-10T06:40:14.314Z,99.90
2022-08-10T06:42:15.105Z,99.90
2022-08-10T06:43:33.982Z,99.90
2022-08-10T06:45:03.093Z,99.90
2022-08-10T06:46:28.223Z,99.90
2022-08-10T06:48:10.058Z,99.90
2022-08-10T06:49:33.257Z,99.90
2022-08-10T06:51:01.327Z,99.90
2022-08-10T06:52:24.331Z,99.90
2022-08-10T06:53:54.666Z,99.90
2022-08-10T06:55:18.799Z,99.90
2022-08-10T06:57:01.627Z,99.90
2022-08-10T06:58:34.200Z,99.90
2022-08-10T06:59:59.137Z,99.90
2022-08-10T07:01:34.143Z,99.90
2022-08-10T07:03:01.537Z,99.90
2022-08-10T07:05:03.803Z,99.90
2022-08-10T07:06:26.709Z,99.90
2022-08-10T07:07:50.946Z,99.90
2022-08-10T07:09:16.536Z,99.90
2022-08-10T07:10:46.104Z,99.90
2022-08-10T07:12:10.319Z,99.90
2022-08-10T07:14:15.942Z,99.90
2022-08-10T07:15:18.288Z,99.90
2022-08-10T07:16:42.666Z,99.90
2022-08-10T07:18:06.342Z,99.90
2022-08-10T07:19:29.207Z,99.90
2022-08-10T07:20:53.344Z,99.90
2022-08-10T07:23:01.288Z,99.90
2022-08-10T07:24:03.289Z,99.90
2022-08-10T07:25:27.706Z,99.90
2022-08-10T07:26:55.486Z,99.90
2022-08-10T07:28:19.238Z,99.90
2022-08-10T07:29:53.923Z,99.90
2022-08-10T07:31:54.826Z,99.90
2022-08-10T07:33:05.187Z,99.90
2022-08-10T07:34:30.268Z,99.90
2022-08-10T07:35:53.582Z,99.90
2022-08-10T07:37:17.016Z,99.90
2022-08-10T07:38:41.394Z,99.90
2022-08-10T07:40:05.145Z,99.90
2022-08-10T07:41:31.926Z,99.90
2022-08-10T07:42:58.527Z,99.90
2022-08-10T07:44:23.626Z,99.90
2022-08-10T07:45:47.161Z,99.90
2022-08-10T07:47:13.858Z,99.90
2022-08-10T07:48:48.751Z,99.90
2022-08-10T07:50:15.014Z,99.90
2022-08-10T07:51:38.141Z,99.90
2022-08-10T07:53:02.797Z,99.90
2022-08-10T07:54:29.839Z,99.90
2022-08-10T07:56:05.687Z,99.90
2022-08-10T07:57:40.045Z,99.90
2022-08-10T07:59:09.497Z,99.90
2022-08-10T08:00:32.871Z,99.90
2022-08-10T08:01:56.649Z,99.90
2022-08-10T08:03:24.737Z,99.90
2022-08-10T08:04:48.647Z,99.90
2022-08-10T08:06:13.336Z,99.90
2022-08-10T08:07:38.317Z,99.90
2022-08-10T08:09:03.631Z,99.90
2022-08-10T08:10:28.786Z,99.90
2022-08-10T08:11:52.974Z,99.90
2022-08-10T08:13:16.792Z,99.90
2022-08-10T08:14:41.652Z,99.90
2022-08-10T08:16:17.370Z,99.90
2022-08-10T08:17:41.967Z,99.90
2022-08-10T08:20:47.874Z,99.90
2022-08-10T08:24:05.290Z,99.90
2022-08-10T08:24:10.315Z,99.90
2022-08-10T08:25:41.118Z,99.90
2022-08-10T08:27:04.976Z,99.90
2022-08-10T08:28:28.704Z,99.90
2022-08-10T08:29:52.304Z,99.90
2022-08-10T08:31:15.514Z,99.90
2022-08-10T08:32:40.632Z,99.90
2022-08-10T08:34:04.416Z,99.90
2022-08-10T08:35:27.108Z,99.90
2022-08-10T08:36:50.409Z,99.90
2022-08-10T08:38:32.517Z,99.90
2022-08-10T08:39:57.137Z,99.90
2022-08-10T08:41:40.742Z,99.80
2022-08-10T08:43:31.406Z,99.90
2022-08-10T08:45:25.184Z,99.90
2022-08-10T08:48:04.424Z,99.90
2022-08-10T08:49:00.308Z,99.90
2022-08-10T08:51:03.829Z,99.40
2022-08-10T08:53:21.630Z,99.00
2022-08-10T08:55:03.295Z,98.40
2022-08-10T08:56:50.153Z,99.00
2022-08-10T08:58:24.542Z,99.20
2022-08-10T09:00:14.354Z,98.90
2022-08-10T09:02:02.641Z,98.40
2022-08-10T09:03:30.718Z,99.00
2022-08-10T09:05:22.161Z,99.20
2022-08-10T09:06:51.072Z,99.20
2022-08-10T09:08:37.565Z,98.50
2022-08-10T09:10:43.981Z,98.40
2022-08-10T09:12:36.519Z,98.50
2022-08-10T09:14:04.678Z,97.80
2022-08-10T09:15:39.666Z,97.00
2022-08-10T09:17:16.362Z,97.80
2022-08-10T09:19:19.582Z,97.80
2022-08-10T09:21:43.328Z,97.80
2022-08-10T09:24:01.407Z,97.20
2022-08-10T09:25:39.023Z,96.10
2022-08-10T09:27:09.340Z,96.60
2022-08-10T09:28:37.988Z,96.90
2022-08-10T09:30:07.537Z,96.80
2022-08-10T09:31:41.059Z,97.40
2022-08-10T09:36:21.415Z,97.00
2022-08-10T09:36:26.579Z,97.50
2022-08-10T09:38:02.318Z,97.70
2022-08-10T09:40:48.448Z,97.40
2022-08-10T09:41:49.675Z,96.80
2022-08-10T09:43:30.577Z,96.80
2022-08-10T09:44:58.081Z,96.70
2022-08-10T09:46:33.239Z,96.50
2022-08-10T09:48:18.607Z,96.40
2022-08-10T09:49:57.841Z,96.10
2022-08-10T09:51:48.745Z,96.00
2022-08-10T09:53:21.921Z,96.00
2022-08-10T09:54:53.919Z,95.70
2022-08-10T09:56:29.385Z,96.00
2022-08-10T09:58:15.994Z,96.00
2022-08-10T10:00:14.449Z,95.90
2022-08-10T10:02:03.272Z,96.10
2022-08-10T10:03:46.878Z,95.30
2022-08-10T10:05:33.589Z,95.30
2022-08-10T10:06:58.859Z,94.50
2022-08-10T10:08:42.790Z,94.80
2022-08-10T10:10:19.823Z,95.40
2022-08-10T10:11:54.118Z,94.90
2022-08-10T10:14:02.168Z,94.20
2022-08-10T10:15:45.473Z,93.90
2022-08-10T10:17:18.735Z,94.60
2022-08-10T10:19:10.114Z,95.00
2022-08-10T10:20:47.876Z,94.80
2022-08-10T10:22:37.239Z,94.50
2022-08-10T10:24:22.324Z,94.10
2022-08-10T10:26:01.676Z,94.20
2022-08-10T10:27:48.022Z,94.80
2022-08-10T10:29:57.389Z,94.50
2022-08-10T10:31:16.923Z,94.50
2022-08-10T10:33:13.301Z,94.20
2022-08-10T10:34:53.802Z,94.70
2022-08-10T10:36:17.699Z,94.80
2022-08-10T10:38:01.103Z,94.70
2022-08-10T10:39:26.181Z,94.70
2022-08-10T10:41:19.469Z,94.10
2022-08-10T10:43:07.984Z,93.60
2022-08-10T10:44:49.285Z,94.60
2022-08-10T10:46:49.829Z,94.20
2022-08-10T10:48:24.151Z,94.40
2022-08-10T10:50:00.857Z,94.50
2022-08-10T10:51:33.089Z,93.20
2022-08-10T10:53:17.975Z,93.70
2022-08-10T10:54:50.425Z,94.10
2022-08-10T10:56:47.613Z,94.20
2022-08-10T10:58:20.033Z,94.60
2022-08-10T11:00:02.957Z,94.30
2022-08-10T11:01:54.376Z,93.80
2022-08-10T11:03:28.331Z,93.40
2022-08-10T11:05:04.770Z,94.00
2022-08-10T11:06:48.571Z,94.10
2022-08-10T11:08:14.546Z,94.20
2022-08-10T11:10:05.157Z,94.60
2022-08-10T11:12:00.711Z,94.50
2022-08-10T11:14:27.037Z,94.40
2022-08-10T11:15:32.937Z,95.20
2022-08-10T11:17:25.920Z,94.30
2022-08-10T11:19:10.578Z,93.20
2022-08-10T11:20:51.987Z,94.00
2022-08-10T11:22:36.625Z,94.60
2022-08-10T11:24:42.968Z,94.60
2022-08-10T11:26:20.325Z,94.10
2022-08-10T11:27:57.583Z,93.80
2022-08-10T11:29:51.797Z,94.00
2022-08-10T11:31:33.752Z,94.10
2022-08-10T11:32:58.756Z,94.30
2022-08-10T11:34:48.216Z,93.90
2022-08-10T11:36:26.650Z,93.50
2022-08-10T11:38:33.059Z,94.10
2022-08-10T11:40:24.499Z,94.60
2022-08-10T11:42:16.097Z,94.90
2022-08-10T11:43:54.013Z,94.00
2022-08-10T11:45:29.444Z,94.50
2022-08-10T11:47:01.268Z,93.90
2022-08-10T11:48:53.209Z,94.90
2022-08-10T11:50:49.594Z,94.60
2022-08-10T11:52:22.967Z,94.40
2022-08-10T11:54:05.406Z,94.30
2022-08-10T11:55:33.103Z,93.90
2022-08-10T11:57:02.469Z,93.30
2022-08-10T11:58:47.486Z,93.70
2022-08-10T12:00:10.268Z,93.50
2022-08-10T12:01:34.182Z,93.60
2022-08-10T12:03:00.325Z,93.50
2022-08-10T12:04:24.643Z,94.20
2022-08-10T12:05:54.070Z,93.70
2022-08-10T12:10:07.220Z,94.60
2022-08-10T12:10:09.686Z,94.90
2022-08-10T12:10:46.129Z,95.10
2022-08-10T12:12:09.171Z,94.60
2022-08-10T12:14:10.686Z,94.60
2022-08-10T12:15:43.571Z,94.80
2022-08-10T12:17:12.624Z,93.70
2022-08-10T12:18:48.115Z,93.70
2022-08-10T12:20:21.534Z,94.60
2022-08-10T12:21:56.098Z,94.80
2022-08-10T12:23:43.794Z,94.60
2022-08-10T12:25:17.901Z,94.50
2022-08-10T12:26:56.236Z,94.30
2022-08-10T12:28:50.204Z,94.60
2022-08-10T12:30:17.140Z,94.40
2022-08-10T12:31:43.944Z,93.60
2022-08-10T12:33:23.421Z,94.20
2022-08-10T12:34:51.135Z,93.90
2022-08-10T12:36:43.076Z,93.70
2022-08-10T12:38:25.712Z,93.60
2022-08-10T12:40:34.023Z,93.90
2022-08-10T12:42:06.569Z,93.70
2022-08-10T12:44:05.515Z,94.40
2022-08-10T12:45:48.071Z,94.60
2022-08-10T12:47:35.015Z,94.40
2022-08-10T12:49:00.472Z,93.50
2022-08-10T12:50:33.992Z,94.40
2022-08-10T12:52:18.189Z,95.00
2022-08-10T12:54:10.477Z,94.20
2022-08-10T12:55:34.082Z,94.40
2022-08-10T12:57:15.636Z,94.60
2022-08-10T12:58:57.028Z,94.80
2022-08-10T13:00:33.854Z,95.00
2022-08-10T13:02:07.549Z,94.60
2022-08-10T13:04:20.300Z,94.30
2022-08-10T13:05:18.162Z,94.00
2022-08-10T13:06:46.107Z,94.20
2022-08-10T13:08:28.239Z,93.50
2022-08-10T13:09:55.691Z,93.60
2022-08-10T13:12:34.089Z,94.10
2022-08-10T13:13:05.752Z,93.60
2022-08-10T13:14:42.808Z,94.10
2022-08-10T13:16:06.183Z,93.90
2022-08-10T13:17:39.762Z,93.90
2022-08-10T13:19:06.550Z,94.00
2022-08-10T13:20:37.923Z,94.50
2022-08-10T13:22:02.815Z,94.80
2022-08-10T13:23:29.012Z,94.40
2022-08-10T13:24:55.925Z,94.90
2022-08-10T13:26:22.317Z,95.10
2022-08-10T13:28:01.291Z,93.10
2022-08-10T13:29:33.197Z,93.30
2022-08-10T13:31:05.331Z,93.30
2022-08-10T13:32:29.386Z,93.70
2022-08-10T13:34:41.522Z,93.90
2022-08-10T13:35:38.291Z,94.30
2022-08-10T13:37:02.423Z,94.10
2022-08-10T13:38:25.366Z,93.50
2022-08-10T13:39:58.728Z,93.70
2022-08-10T13:41:31.779Z,93.70
2022-08-10T13:42:58.639Z,93.90
2022-08-10T13:44:35.135Z,94.10
2022-08-10T13:45:59.001Z,93.60
2022-08-10T13:47:31.926Z,93.30
2022-08-10T13:49:11.401Z,94.00
2022-08-10T13:50:37.405Z,94.20
2022-08-10T13:52:00.296Z,93.80
2022-08-10T13:53:23.085Z,92.90
2022-08-10T13:54:46.545Z,93.00
2022-08-10T13:56:10.328Z,93.20
2022-08-10T13:57:36.949Z,93.70
2022-08-10T13:59:09.937Z,93.10
2022-08-10T14:00:39.433Z,92.40
2022-08-10T14:02:03.116Z,92.80
2022-08-10T14:03:27.691Z,92.90
2022-08-10T14:04:50.236Z,92.50
2022-08-10T14:06:15.358Z,92.60
2022-08-10T14:08:00.261Z,92.60
2022-08-10T14:09:32.935Z,92.70
2022-08-10T14:11:02.028Z,91.00
2022-08-10T14:12:37.490Z,90.30
2022-08-10T14:14:04.252Z,91.20
2022-08-10T14:15:31.838Z,91.60
2022-08-10T14:16:55.520Z,91.30
2022-08-10T14:18:18.751Z,91.30
2022-08-10T14:19:43.501Z,90.80
2022-08-10T14:21:06.815Z,90.90
2022-08-10T14:22:34.225Z,91.00
2022-08-10T14:24:02.391Z,90.90
2022-08-10T14:25:24.531Z,91.90
2022-08-10T14:26:48.237Z,91.00
2022-08-10T14:28:11.046Z,91.00
2022-08-10T14:29:55.040Z,90.40
2022-08-10T14:31:22.326Z,90.40
2022-08-10T14:32:48.100Z,91.30
2022-08-10T14:34:12.160Z,91.50
2022-08-10T14:36:20.313Z,92.00
2022-08-10T14:37:37.703Z,91.80
2022-08-10T14:39:02.373Z,91.60
2022-08-10T14:40:33.636Z,92.10
2022-08-10T14:42:01.593Z,91.60
2022-08-10T14:43:39.263Z,90.80
2022-08-10T14:45:07.552Z,91.60
2022-08-10T14:46:30.801Z,91.90
2022-08-10T14:48:10.046Z,91.30
2022-08-10T14:49:57.210Z,90.70
2022-08-10T14:51:27.079Z,90.80
2022-08-10T14:53:09.933Z,91.90
2022-08-10T14:54:34.996Z,91.40
2022-08-10T14:56:02.305Z,92.10
2022-08-10T14:58:16.717Z,92.00
2022-08-10T14:59:09.309Z,92.50
2022-08-10T15:00:42.508Z,92.70
2022-08-10T15:02:40.860Z,92.70
2022-08-10T15:04:06.929Z,92.90
2022-08-10T15:05:39.910Z,93.10
2022-08-10T15:07:12.661Z,92.90
2022-08-10T15:08:36.928Z,93.40
2022-08-10T15:10:04.320Z,92.50
2022-08-10T15:12:13.081Z,92.90
2022-08-10T15:13:33.596Z,93.00
2022-08-10T15:15:01.189Z,93.50
2022-08-10T15:16:27.353Z,93.30
2022-08-10T15:17:57.343Z,93.10
2022-08-10T15:19:34.302Z,93.00
2022-08-10T15:21:17.064Z,94.00
2022-08-10T15:22:40.389Z,93.60
2022-08-10T15:24:09.901Z,93.90
2022-08-10T15:25:36.747Z,94.20
2022-08-10T15:27:00.163Z,94.30
2022-08-10T15:28:23.615Z,93.80
2022-08-10T15:30:08.621Z,93.60
2022-08-10T15:31:34.874Z,93.80
2022-08-10T15:33:21.270Z,94.50
2022-08-10T15:35:20.890Z,94.50
2022-08-10T15:37:40.484Z,94.50
2022-08-10T15:38:59.894Z,94.00
2022-08-10T15:40:30.797Z,94.10
2022-08-10T15:42:05.151Z,94.30
2022-08-10T15:43:36.872Z,94.10
2022-08-10T15:45:07.312Z,94.00
2022-08-10T15:46:39.637Z,93.80
2022-08-10T15:48:05.262Z,94.40
2022-08-10T15:49:33.566Z,94.90
2022-08-10T15:51:01.863Z,94.10
2022-08-10T15:53:00.802Z,94.40
2022-08-10T15:54:17.102Z,94.30
2022-08-10T15:55:54.589Z,94.00
2022-08-10T15:57:22.754Z,93.30
2022-08-10T15:59:08.545Z,93.20
2022-08-10T16:00:33.377Z,93.50
2022-08-10T16:02:16.672Z,93.80
2022-08-10T16:03:44.692Z,94.10
2022-08-10T16:05:21.562Z,94.10
2022-08-10T16:07:09.094Z,94.10
2022-08-10T16:08:55.846Z,94.30
2022-08-10T16:10:28.902Z,94.70
2022-08-10T16:11:59.997Z,95.00
2022-08-10T16:14:00.763Z,94.90
2022-08-10T16:15:14.777Z,94.70
2022-08-10T16:16:38.549Z,93.70
2022-08-10T16:18:04.515Z,93.80
2022-08-10T16:19:27.394Z,94.40
2022-08-10T16:20:54.907Z,94.50
2022-08-10T16:22:34.501Z,94.50
2022-08-10T16:24:15.866Z,94.80
2022-08-10T16:25:51.706Z,94.90
2022-08-10T16:27:26.171Z,95.70
2022-08-10T16:28:55.112Z,95.60
2022-08-10T16:30:17.605Z,96.10
2022-08-10T16:31:50.110Z,96.00
2022-08-10T16:33:18.784Z,95.30
2022-08-10T16:34:43.357Z,95.00
2022-08-10T16:36:07.719Z,94.50
2022-08-10T16:37:56.533Z,94.50
2022-08-10T16:39:57.622Z,94.60
2022-08-10T16:41:54.955Z,94.30
2022-08-10T16:43:03.991Z,94.10
2022-08-10T16:44:35.752Z,94.90
2022-08-10T16:45:58.944Z,95.10
2022-08-10T16:47:27.537Z,95.40
2022-08-10T16:48:53.084Z,95.30
2022-08-10T16:50:21.347Z,95.40
2022-08-10T16:51:48.434Z,95.50
2022-08-10T16:53:17.183Z,95.80
2022-08-10T16:54:41.532Z,96.20
2022-08-10T16:56:06.935Z,96.30
2022-08-10T16:57:33.485Z,96.20
2022-08-10T16:58:57.506Z,96.50
2022-08-10T17:00:23.655Z,96.50
2022-08-10T17:01:51.319Z,96.30
2022-08-10T17:04:05.492Z,96.20
2022-08-10T17:05:02.529Z,96.60
2022-08-10T17:06:30.412Z,96.40
2022-08-10T17:08:07.342Z,96.30
2022-08-10T17:09:33.142Z,96.40
2022-08-10T17:10:57.667Z,96.00
2022-08-10T17:12:24.826Z,95.40
2022-08-10T17:13:49.533Z,95.60
2022-08-10T17:15:12.322Z,94.70
2022-08-10T17:16:36.934Z,95.20
2022-08-10T17:18:02.629Z,95.80
2022-08-10T17:19:26.702Z,95.70
2022-08-10T17:20:51.451Z,95.50
2022-08-10T17:22:19.768Z,95.50
2022-08-10T17:23:47.126Z,95.60
2022-08-10T17:25:17.366Z,95.50
2022-08-10T17:26:43.323Z,95.60
2022-08-10T17:28:09.938Z,95.70
2022-08-10T17:29:58.142Z,95.90
2022-08-10T17:31:54.801Z,95.80
2022-08-10T17:33:15.952Z,96.00
2022-08-10T17:34:44.449Z,95.80
2022-08-10T17:36:07.677Z,95.80
2022-08-10T17:37:36.403Z,95.50
2022-08-10T17:39:00.655Z,95.60
2022-08-10T17:40:26.222Z,95.60
2022-08-10T17:41:52.043Z,95.70
2022-08-10T17:43:58.505Z,95.80
2022-08-10T17:45:05.701Z,95.70
2022-08-10T17:46:32.890Z,95.60
2022-08-10T17:47:59.568Z,95.70
2022-08-10T17:49:23.668Z,95.60
2022-08-10T17:50:51.383Z,95.80
2022-08-10T17:52:20.522Z,95.40
2022-08-10T17:53:56.475Z,95.10
2022-08-10T17:55:19.635Z,95.00
2022-08-10T17:56:42.373Z,94.90
2022-08-10T17:58:12.196Z,95.00
2022-08-10T17:59:37.566Z,94.90
2022-08-10T18:01:38.350Z,95.00
2022-08-10T18:02:48.665Z,95.10
2022-08-10T18:04:17.951Z,95.30
2022-08-10T18:05:40.110Z,95.40
2022-08-10T18:07:03.417Z,95.50
2022-08-10T18:08:29.473Z,95.60
2022-08-10T18:09:54.458Z,95.80
2022-08-10T18:11:19.142Z,96.00
2022-08-10T18:12:51.247Z,96.10
2022-08-10T18:14:15.046Z,96.30
2022-08-10T18:15:42.378Z,96.50
2022-08-10T18:17:13.404Z,96.70
2022-08-10T18:18:37.346Z,96.90
2022-08-10T18:20:02.369Z,97.10
2022-08-10T18:21:27.161Z,97.20
2022-08-10T18:22:54.847Z,97.50
2022-08-10T18:24:19.491Z,97.60
2022-08-10T18:25:44.926Z,97.80
2022-08-10T18:27:09.021Z,98.00
2022-08-10T18:28:32.006Z,98.20
2022-08-10T18:29:57.277Z,98.40
2022-08-10T18:31:20.602Z,98.50
2022-08-10T18:32:48.100Z,98.70
2022-08-10T18:34:13.177Z,98.70
2022-08-10T18:35:35.849Z,99.10
2022-08-10T18:36:59.103Z,99.30
2022-08-10T18:38:21.989Z,99.40
2022-08-10T18:39:45.465Z,99.50
2022-08-10T18:41:12.218Z,99.60
2022-08-10T18:42:49.642Z,99.70
2022-08-10T18:44:16.356Z,99.80
2022-08-10T18:45:43.611Z,99.90
2022-08-10T18:47:17.803Z,99.90
2022-08-10T18:48:47.029Z,99.90
2022-08-10T18:50:17.137Z,99.90
2022-08-10T18:51:50.822Z,99.90
2022-08-10T18:53:36.917Z,99.90
2022-08-10T18:55:14.442Z,99.90
2022-08-10T18:56:59.594Z,99.90
2022-08-10T18:58:30.774Z,99.90
2022-08-10T19:00:10.337Z,99.90
2022-08-10T19:01:38.069Z,99.90
2022-08-10T19:03:01.022Z,99.90
2022-08-10T19:05:02.449Z,99.90
2022-08-10T19:06:49.290Z,99.90
2022-08-10T19:08:31.151Z,99.90
2022-08-10T19:10:03.775Z,99.90
2022-08-10T19:11:58.145Z,99.90
2022-08-10T19:13:48.818Z,99.90
2022-08-10T19:15:23.951Z,99.90
2022-08-10T19:16:57.089Z,99.90
2022-08-10T19:18:42.337Z,99.90
2022-08-10T19:20:19.440Z,99.90
2022-08-10T19:21:53.821Z,99.90
2022-08-10T19:23:16.675Z,99.90
2022-08-10T19:24:50.394Z,99.90
2022-08-10T19:26:41.793Z,99.90
2022-08-10T19:28:16.754Z,99.90
2022-08-10T19:30:11.361Z,99.90
2022-08-10T19:31:53.670Z,99.90
2022-08-10T19:33:27.870Z,99.90
2022-08-10T19:35:18.848Z,99.90
2022-08-10T19:36:46.818Z,99.90
2022-08-10T19:38:33.478Z,99.90
2022-08-10T19:40:43.981Z,99.90
2022-08-10T19:42:19.645Z,99.90
2022-08-10T19:44:04.410Z,99.90
2022-08-10T19:46:01.137Z,99.90
2022-08-10T19:47:29.025Z,99.90
2022-08-10T19:48:59.439Z,99.90
2022-08-10T19:50:32.644Z,99.90
2022-08-10T19:52:10.645Z,99.90
2022-08-10T19:54:01.291Z,99.90
2022-08-10T19:55:26.196Z,99.90
2022-08-10T19:57:15.381Z,99.90
2022-08-10T19:58:59.707Z,99.90
2022-08-10T20:00:29.133Z,99.90